createdAt,value
2019-05-18T00:01:09.711Z,99.90
2019-05-18T00:03:31.345Z,99.90
2019-05-18T00:05:52.679Z,99.90
2019-05-18T00:08:13.964Z,99.90
2019-05-18T00:10:35.170Z,99.90
2019-05-18T00:12:56.367Z,99.90
2019-05-18T00:15:17.597Z,99.90
2019-05-18T00:17:38.923Z,99.90
2019-05-18T00:20:00.118Z,99.90
2019-05-18T00:22:21.305Z,99.90
2019-05-18T00:24:42.542Z,99.90
2019-05-18T00:27:04.147Z,99.90
2019-05-18T00:29:27.278Z,99.90
2019-05-18T00:31:48.481Z,99.90
2019-05-18T00:34:09.685Z,99.90
2019-05-18T00:36:30.898Z,99.90
2019-05-18T00:38:52.208Z,99.90
2019-05-18T00:41:14.412Z,99.90
2019-05-18T00:43:35.588Z,99.90
2019-05-18T00:45:58.031Z,99.90
2019-05-18T00:48:19.231Z,99.90
2019-05-18T00:50:40.440Z,99.90
2019-05-18T00:53:21.497Z,99.90
2019-05-18T00:55:42.785Z,99.90
2019-05-18T00:58:05.183Z,99.90
2019-05-18T01:00:26.385Z,99.90
2019-05-18T01:02:47.579Z,99.90
2019-05-18T01:05:09.142Z,99.90
2019-05-18T01:07:30.342Z,99.90
2019-05-18T01:09:51.821Z,99.90
2019-05-18T01:12:13.113Z,99.90
2019-05-18T01:14:34.416Z,99.90
2019-05-18T01:16:55.721Z,99.90
2019-05-18T01:19:18.227Z,99.90
2019-05-18T01:21:39.457Z,99.90
2019-05-18T01:24:00.682Z,99.90
2019-05-18T01:26:21.904Z,99.90
2019-05-18T01:28:43.110Z,99.90
2019-05-18T01:31:04.431Z,99.90
2019-05-18T01:33:25.630Z,99.90
2019-05-18T01:35:46.951Z,99.90
2019-05-18T01:38:08.158Z,99.90
2019-05-18T01:40:29.394Z,99.90
2019-05-18T01:42:50.692Z,99.90
2019-05-18T01:45:17.491Z,99.90
2019-05-18T01:47:36.309Z,99.90
2019-05-18T01:49:57.509Z,99.90
2019-05-18T01:52:18.762Z,99.90
2019-05-18T01:54:40.418Z,99.90
2019-05-18T01:57:01.855Z,99.90
2019-05-18T01:59:23.123Z,99.90
2019-05-18T02:01:44.610Z,99.90
2019-05-18T02:04:07.106Z,99.90
2019-05-18T02:06:28.403Z,99.90
2019-05-18T02:08:49.605Z,99.90
2019-05-18T02:11:11.077Z,99.90
2019-05-18T02:13:32.526Z,99.90
2019-05-18T02:15:53.749Z,99.90
2019-05-18T02:18:28.337Z,99.90
2019-05-18T02:20:38.061Z,99.90
2019-05-18T02:22:59.270Z,99.90
2019-05-18T02:25:20.506Z,99.90
2019-05-18T02:27:41.764Z,99.90
2019-05-18T02:30:06.723Z,99.90
2019-05-18T02:32:27.939Z,99.90
2019-05-18T02:34:49.154Z,99.90
2019-05-18T02:37:10.454Z,99.90
2019-05-18T02:39:31.652Z,99.90
2019-05-18T02:41:52.861Z,99.90
2019-05-18T02:44:14.313Z,99.90
2019-05-18T02:46:35.637Z,99.90
2019-05-18T02:48:56.864Z,99.90
2019-05-18T02:51:18.074Z,99.90
2019-05-18T02:53:39.305Z,99.90
2019-05-18T02:56:00.614Z,99.90
2019-05-18T02:58:21.840Z,99.90
2019-05-18T03:00:43.037Z,99.90
2019-05-18T03:03:04.259Z,99.90
2019-05-18T03:05:25.665Z,99.90
2019-05-18T03:07:47.082Z,99.90
2019-05-18T03:10:09.871Z,99.90
2019-05-18T03:12:32.348Z,99.90
2019-05-18T03:14:53.841Z,99.90
2019-05-18T03:17:15.065Z,99.90
2019-05-18T03:19:36.265Z,99.90
2019-05-18T03:22:00.820Z,99.90
2019-05-18T03:24:20.619Z,99.90
2019-05-18T03:26:41.836Z,99.90
2019-05-18T03:29:03.159Z,99.90
2019-05-18T03:31:24.491Z,99.90
2019-05-18T03:33:45.735Z,99.90
2019-05-18T03:36:07.218Z,99.90
2019-05-18T03:38:28.510Z,99.90
2019-05-18T03:40:49.721Z,99.90
2019-05-18T03:43:10.942Z,99.90
2019-05-18T03:45:32.382Z,99.90
2019-05-18T03:47:53.608Z,99.90
2019-05-18T03:50:14.998Z,99.90
2019-05-18T03:52:36.213Z,99.90
2019-05-18T03:54:57.411Z,99.90
2019-05-18T03:57:18.632Z,99.90
2019-05-18T03:59:39.818Z,99.90
2019-05-18T04:02:01.048Z,99.90
2019-05-18T04:04:22.245Z,99.90
2019-05-18T04:06:43.682Z,99.90
2019-05-18T04:09:05.099Z,99.90
2019-05-18T04:11:26.309Z,99.90
2019-05-18T04:13:47.508Z,99.90
2019-05-18T04:16:08.893Z,99.90
2019-05-18T04:18:30.255Z,99.90
2019-05-18T04:20:51.549Z,99.90
2019-05-18T04:23:12.767Z,99.90
2019-05-18T04:25:34.143Z,99.90
2019-05-18T04:27:55.367Z,99.90
2019-05-18T04:30:16.898Z,99.90
2019-05-18T04:32:38.104Z,99.90
2019-05-18T04:35:00.596Z,99.90
2019-05-18T04:37:21.790Z,99.90
2019-05-18T04:39:43.240Z,99.90
2019-05-18T04:42:04.446Z,99.90
2019-05-18T04:44:25.662Z,99.90
2019-05-18T04:46:46.884Z,99.90
2019-05-18T04:49:08.228Z,99.90
2019-05-18T04:51:29.444Z,99.90
2019-05-18T04:53:50.646Z,99.90
2019-05-18T04:56:11.865Z,99.90
2019-05-18T04:58:33.161Z,99.90
2019-05-18T05:00:54.349Z,99.90
2019-05-18T05:03:15.913Z,99.90
2019-05-18T05:05:37.117Z,99.90
2019-05-18T05:07:58.374Z,99.90
2019-05-18T05:10:19.852Z,99.90
2019-05-18T05:12:41.163Z,99.90
2019-05-18T05:15:03.872Z,99.90
2019-05-18T05:17:25.218Z,99.90
2019-05-18T05:19:46.472Z,99.90
2019-05-18T05:22:07.695Z,99.90
2019-05-18T05:24:30.118Z,99.90
2019-05-18T05:26:51.313Z,99.90
2019-05-18T05:29:12.536Z,99.90
2019-05-18T05:31:33.737Z,99.90
2019-05-18T05:33:58.052Z,99.90
2019-05-18T05:36:19.370Z,99.90
2019-05-18T05:38:53.812Z,99.90
2019-05-18T05:41:16.681Z,99.90
2019-05-18T05:43:38.382Z,99.90
2019-05-18T05:46:01.075Z,99.90
2019-05-18T05:48:22.415Z,99.90
2019-05-18T05:50:43.620Z,99.90
2019-05-18T05:53:04.925Z,99.90
2019-05-18T05:55:26.123Z,99.90
2019-05-18T05:57:47.316Z,99.90
2019-05-18T06:00:09.529Z,99.90
2019-05-18T06:02:30.728Z,99.90
2019-05-18T06:04:51.930Z,99.90
2019-05-18T06:07:13.133Z,99.90
2019-05-18T06:09:35.864Z,99.90
2019-05-18T06:11:57.069Z,99.90
2019-05-18T06:14:18.277Z,99.90
2019-05-18T06:16:39.905Z,99.90
2019-05-18T06:19:01.149Z,99.90
2019-05-18T06:21:22.369Z,99.90
2019-05-18T06:23:43.581Z,99.90
2019-05-18T06:26:04.781Z,99.90
2019-05-18T06:28:25.988Z,99.90
2019-05-18T06:30:47.441Z,99.90
2019-05-18T06:33:08.642Z,99.90
2019-05-18T06:35:29.832Z,99.90
2019-05-18T06:37:51.116Z,99.90
2019-05-18T06:40:12.542Z,99.90
2019-05-18T06:42:33.723Z,99.90
2019-05-18T06:44:54.930Z,99.90
2019-05-18T06:47:16.564Z,99.90
2019-05-18T06:49:37.797Z,99.90
2019-05-18T06:51:59.093Z,99.90
2019-05-18T06:54:20.333Z,99.90
2019-05-18T06:56:42.033Z,99.90
2019-05-18T06:59:03.221Z,99.90
2019-05-18T07:01:44.351Z,99.90
2019-05-18T07:04:05.618Z,99.90
2019-05-18T07:06:26.850Z,99.90
2019-05-18T07:08:48.038Z,98.40
2019-05-18T07:11:09.489Z,96.80
2019-05-18T07:13:31.019Z,96.40
2019-05-18T07:15:52.249Z,94.30
2019-05-18T07:18:13.636Z,94.80
2019-05-18T07:20:34.869Z,94.90
2019-05-18T07:22:56.166Z,95.10
2019-05-18T07:25:18.785Z,93.30
2019-05-18T07:27:39.977Z,93.00
2019-05-18T07:30:02.223Z,93.80
2019-05-18T07:32:23.418Z,94.10
2019-05-18T07:34:44.691Z,93.30
2019-05-18T07:37:05.917Z,92.70
2019-05-18T07:39:27.119Z,92.40
2019-05-18T07:41:48.597Z,92.70
2019-05-18T07:44:09.796Z,92.60
2019-05-18T07:46:31.010Z,91.30
2019-05-18T07:48:52.577Z,90.60
2019-05-18T07:51:13.772Z,91.30
2019-05-18T07:53:35.205Z,90.70
2019-05-18T07:55:56.522Z,90.30
2019-05-18T07:58:17.848Z,88.80
2019-05-18T08:00:39.254Z,90.10
2019-05-18T08:03:01.005Z,90.20
2019-05-18T08:05:22.207Z,89.60
2019-05-18T08:07:43.532Z,89.70
2019-05-18T08:10:06.943Z,90.30
2019-05-18T08:12:28.151Z,90.20
2019-05-18T08:14:49.356Z,89.70
2019-05-18T08:17:10.571Z,89.80
2019-05-18T08:19:31.796Z,89.20
2019-05-18T08:21:53.777Z,89.60
2019-05-18T08:24:15.440Z,88.80
2019-05-18T08:26:36.797Z,87.40
2019-05-18T08:28:58.766Z,90.00
2019-05-18T08:31:22.628Z,90.00
2019-05-18T08:33:45.772Z,89.70
2019-05-18T08:36:06.976Z,88.30
2019-05-18T08:38:30.066Z,85.50
2019-05-18T08:40:52.648Z,87.30
2019-05-18T08:43:15.998Z,88.60
2019-05-18T08:45:37.301Z,89.20
2019-05-18T08:47:58.705Z,89.70
2019-05-18T08:50:20.057Z,86.60
2019-05-18T08:52:41.345Z,84.70
2019-05-18T08:55:06.981Z,85.70
2019-05-18T08:57:31.284Z,86.80
2019-05-18T08:59:54.451Z,86.00
2019-05-18T09:02:15.785Z,86.10
2019-05-18T09:04:37.114Z,85.00
2019-05-18T09:07:00.300Z,84.50
2019-05-18T09:09:21.596Z,83.60
2019-05-18T09:11:42.834Z,84.50
2019-05-18T09:14:04.046Z,86.00
2019-05-18T09:16:26.674Z,85.30
2019-05-18T09:18:47.997Z,84.90
2019-05-18T09:21:09.269Z,84.00
2019-05-18T09:23:30.490Z,84.40
2019-05-18T09:25:51.691Z,83.50
2019-05-18T09:28:12.890Z,82.50
2019-05-18T09:30:34.109Z,82.40
2019-05-18T09:32:55.364Z,82.20
2019-05-18T09:35:16.869Z,82.10
2019-05-18T09:37:38.083Z,81.00
2019-05-18T09:39:59.276Z,79.00
2019-05-18T09:42:20.529Z,79.10
2019-05-18T09:44:41.748Z,80.90
2019-05-18T09:47:03.092Z,80.10
2019-05-18T09:49:24.784Z,78.10
2019-05-18T09:51:46.000Z,77.50
2019-05-18T09:54:07.356Z,81.20
2019-05-18T09:56:29.873Z,78.80
2019-05-18T09:59:11.220Z,77.60
2019-05-18T10:01:32.582Z,80.00
2019-05-18T10:03:54.850Z,79.30
2019-05-18T10:06:16.292Z,79.80
2019-05-18T10:08:37.542Z,80.60
2019-05-18T10:10:58.954Z,79.80
2019-05-18T10:13:20.159Z,77.10
2019-05-18T10:15:41.386Z,76.40
2019-05-18T10:18:02.605Z,75.20
2019-05-18T10:20:23.905Z,75.30
2019-05-18T10:22:55.261Z,75.00
2019-05-18T10:25:10.524Z,73.00
2019-05-18T10:27:31.738Z,72.40
2019-05-18T10:29:52.962Z,71.00
2019-05-18T10:32:20.118Z,71.90
2019-05-18T10:34:42.405Z,75.10
2019-05-18T10:37:03.727Z,74.60
2019-05-18T10:39:24.965Z,73.00
2019-05-18T10:41:46.205Z,71.00
2019-05-18T10:44:08.629Z,70.30
2019-05-18T10:46:29.904Z,70.10
2019-05-18T10:48:51.492Z,66.20
2019-05-18T10:51:12.746Z,68.10
2019-05-18T10:53:35.953Z,66.80
2019-05-18T10:55:58.229Z,66.00
2019-05-18T10:58:19.524Z,64.50
2019-05-18T11:00:40.713Z,64.50
2019-05-18T11:03:02.103Z,65.10
2019-05-18T11:05:23.315Z,64.80
2019-05-18T11:07:44.516Z,65.60
2019-05-18T11:10:07.380Z,65.90
2019-05-18T11:12:28.629Z,64.70
2019-05-18T11:14:49.945Z,64.10
2019-05-18T11:17:13.157Z,65.90
2019-05-18T11:19:34.418Z,65.90
2019-05-18T11:21:55.640Z,64.50
2019-05-18T11:24:17.054Z,63.50
2019-05-18T11:26:38.536Z,62.30
2019-05-18T11:28:59.787Z,59.80
2019-05-18T11:31:21.315Z,59.70
2019-05-18T11:33:42.577Z,59.70
2019-05-18T11:36:03.875Z,58.50
2019-05-18T11:38:25.124Z,57.60
2019-05-18T11:40:46.426Z,57.50
2019-05-18T11:43:07.637Z,56.70
2019-05-18T11:45:29.358Z,55.10
2019-05-18T11:47:51.048Z,54.20
2019-05-18T11:50:13.728Z,55.90
2019-05-18T11:52:35.122Z,55.00
2019-05-18T11:54:56.406Z,55.80
2019-05-18T11:57:17.755Z,55.00
2019-05-18T11:59:39.467Z,54.90
2019-05-18T12:02:00.747Z,53.60
2019-05-18T12:04:21.952Z,52.80
2019-05-18T12:06:43.287Z,54.40
2019-05-18T12:09:04.806Z,54.10
2019-05-18T12:11:26.075Z,52.10
2019-05-18T12:13:47.280Z,53.00
2019-05-18T12:16:08.480Z,53.00
2019-05-18T12:18:29.705Z,53.60
2019-05-18T12:20:50.931Z,53.80
2019-05-18T12:23:12.346Z,54.20
2019-05-18T12:25:33.671Z,53.80
2019-05-18T12:27:55.197Z,55.00
2019-05-18T12:30:18.616Z,54.30
2019-05-18T12:32:40.033Z,53.20
2019-05-18T12:35:05.657Z,51.20
2019-05-18T12:37:46.733Z,53.30
2019-05-18T12:40:09.236Z,55.20
2019-05-18T12:42:30.799Z,54.80
2019-05-18T12:44:52.093Z,54.60
2019-05-18T12:47:14.475Z,55.40
2019-05-18T12:49:36.077Z,55.60
2019-05-18T12:51:57.599Z,55.40
2019-05-18T12:54:29.312Z,55.50
2019-05-18T12:56:42.610Z,54.80
2019-05-18T12:59:03.997Z,53.80
2019-05-18T13:01:25.326Z,52.80
2019-05-18T13:03:46.616Z,51.40
2019-05-18T13:06:07.897Z,52.20
2019-05-18T13:08:29.211Z,51.20
2019-05-18T13:10:50.569Z,49.60
2019-05-18T13:13:11.880Z,49.30
2019-05-18T13:15:33.090Z,49.30
2019-05-18T13:17:54.290Z,49.60
2019-05-18T13:20:16.814Z,48.70
2019-05-18T13:22:38.529Z,49.50
2019-05-18T13:24:59.751Z,49.40
2019-05-18T13:27:20.961Z,50.50
2019-05-18T13:29:42.186Z,50.30
2019-05-18T13:32:03.381Z,49.60
2019-05-18T13:34:24.700Z,48.50
2019-05-18T13:36:48.875Z,47.80
2019-05-18T13:39:10.209Z,48.80
2019-05-18T13:41:31.526Z,49.80
2019-05-18T13:43:52.837Z,48.00
2019-05-18T13:46:14.074Z,48.10
2019-05-18T13:48:35.331Z,48.10
2019-05-18T13:54:15.486Z,48.40
2019-05-18T13:56:39.771Z,48.70
2019-05-18T13:59:01.778Z,49.20
2019-05-18T14:01:23.127Z,49.40
2019-05-18T14:03:44.336Z,50.10
2019-05-18T14:06:05.603Z,48.90
2019-05-18T14:08:26.874Z,49.20
2019-05-18T14:10:48.082Z,47.00
2019-05-18T14:13:09.286Z,46.80
2019-05-18T14:15:30.497Z,45.90
2019-05-18T14:17:51.701Z,48.80
2019-05-18T14:20:13.566Z,47.70
2019-05-18T14:22:34.863Z,48.00
2019-05-18T14:24:56.169Z,47.20
2019-05-18T14:27:17.441Z,47.00
2019-05-18T14:29:38.662Z,49.20
2019-05-18T14:31:59.885Z,48.80
2019-05-18T14:34:21.130Z,48.20
2019-05-18T14:40:00.773Z,48.80
2019-05-18T14:42:24.447Z,48.10
2019-05-18T14:44:45.745Z,47.70
2019-05-18T14:47:06.978Z,47.80
2019-05-18T14:49:28.177Z,48.60
2019-05-18T14:51:49.474Z,48.50
2019-05-18T14:54:10.973Z,49.00
2019-05-18T14:56:32.310Z,48.70
2019-05-18T14:58:53.596Z,48.10
2019-05-18T15:01:14.834Z,47.70
2019-05-18T15:03:36.045Z,48.60
2019-05-18T15:05:57.273Z,49.40
2019-05-18T15:08:18.466Z,49.40
2019-05-18T15:10:39.720Z,49.20
2019-05-18T15:13:00.938Z,49.70
2019-05-18T15:15:22.362Z,50.70
2019-05-18T15:17:44.429Z,51.40
2019-05-18T15:20:07.238Z,52.80
2019-05-18T15:22:28.448Z,53.90
2019-05-18T15:24:50.493Z,60.10
2019-05-18T15:27:12.192Z,70.70
2019-05-18T15:29:33.421Z,88.90
2019-05-18T15:31:54.624Z,92.50
2019-05-18T15:37:09.383Z,91.80
2019-05-18T15:39:43.711Z,93.90
2019-05-18T15:42:06.060Z,96.60
2019-05-18T15:44:27.254Z,99.80
2019-05-18T15:46:48.472Z,99.90
2019-05-18T15:49:09.813Z,99.90
2019-05-18T15:51:31.214Z,99.90
2019-05-18T15:53:52.837Z,99.90
2019-05-18T15:56:14.046Z,99.90
2019-05-18T15:58:35.245Z,99.90
2019-05-18T16:00:56.463Z,99.90
2019-05-18T16:03:17.773Z,99.90
2019-05-18T16:05:38.972Z,99.90
2019-05-18T16:08:00.317Z,99.90
2019-05-18T16:10:21.600Z,99.90
2019-05-18T16:12:42.827Z,99.90
2019-05-18T16:15:05.913Z,99.90
2019-05-18T16:17:38.864Z,99.90
2019-05-18T16:19:50.253Z,99.90
2019-05-18T16:22:11.471Z,99.90
2019-05-18T16:24:32.766Z,99.90
2019-05-18T16:26:53.987Z,99.90
2019-05-18T16:29:15.200Z,99.90
2019-05-18T16:31:36.475Z,99.90
2019-05-18T16:33:59.053Z,99.90
2019-05-18T16:36:20.259Z,99.90
2019-05-18T16:38:41.474Z,99.90
2019-05-18T16:41:03.077Z,99.90
2019-05-18T16:43:24.293Z,99.90
2019-05-18T16:45:45.493Z,99.90
2019-05-18T16:48:06.704Z,99.90
2019-05-18T16:50:27.894Z,99.90
2019-05-18T16:52:49.101Z,99.90
2019-05-18T16:55:11.029Z,99.90
2019-05-18T16:57:32.360Z,99.90
2019-05-18T16:59:53.540Z,99.90
2019-05-18T17:02:30.290Z,99.90
2019-05-18T17:04:37.854Z,99.90
2019-05-18T17:06:59.049Z,99.90
2019-05-18T17:09:20.253Z,99.90
2019-05-18T17:11:41.457Z,99.90
2019-05-18T17:14:04.909Z,99.90
2019-05-18T17:16:26.250Z,99.90
2019-05-18T17:18:47.531Z,99.90
2019-05-18T17:21:08.927Z,99.90
2019-05-18T17:23:30.234Z,99.90
2019-05-18T17:25:51.528Z,99.90
2019-05-18T17:28:12.748Z,99.90
2019-05-18T17:30:34.181Z,99.90
2019-05-18T17:32:55.397Z,99.90
2019-05-18T17:35:16.781Z,99.90
2019-05-18T17:37:38.019Z,99.90
2019-05-18T17:39:59.201Z,99.90
2019-05-18T17:42:20.704Z,99.90
2019-05-18T17:44:41.904Z,99.90
2019-05-18T17:47:03.202Z,99.90
2019-05-18T17:49:26.847Z,99.90
2019-05-18T17:51:47.614Z,99.90
2019-05-18T17:54:08.804Z,99.90
2019-05-18T17:56:30.101Z,99.90
2019-05-18T17:58:51.635Z,99.90
2019-05-18T18:01:12.929Z,99.90
2019-05-18T18:03:34.148Z,99.90
2019-05-18T18:05:55.348Z,99.90
2019-05-18T18:08:16.570Z,99.90
2019-05-18T18:10:37.757Z,99.90
2019-05-18T18:12:59.063Z,99.90
2019-05-18T18:15:20.573Z,99.90
2019-05-18T18:17:41.763Z,99.90
2019-05-18T18:20:04.369Z,99.90
2019-05-18T18:22:26.773Z,99.90
2019-05-18T18:24:48.080Z,99.90
2019-05-18T18:27:24.039Z,99.90
2019-05-18T18:29:32.393Z,99.90
2019-05-18T18:31:53.605Z,99.90
2019-05-18T18:34:14.809Z,99.90
2019-05-18T18:36:35.984Z,99.90
2019-05-18T18:38:57.189Z,99.90
2019-05-18T18:41:18.493Z,99.90
2019-05-18T18:43:40.027Z,99.90
2019-05-18T18:46:01.694Z,99.90
2019-05-18T18:48:26.258Z,99.90
2019-05-18T18:50:46.238Z,99.90
2019-05-18T18:53:08.826Z,99.90
2019-05-18T18:55:30.047Z,99.90
2019-05-18T18:57:51.266Z,99.90
2019-05-18T19:00:14.696Z,99.90
2019-05-18T19:02:35.896Z,99.90
2019-05-18T19:04:57.477Z,99.90
2019-05-18T19:07:18.675Z,99.90
2019-05-18T19:09:40.239Z,99.90
2019-05-18T19:12:01.454Z,99.90
2019-05-18T19:14:22.670Z,99.90
2019-05-18T19:16:44.390Z,99.90
2019-05-18T19:19:05.787Z,99.90
2019-05-18T19:21:27.183Z,99.90
2019-05-18T19:23:48.545Z,99.90
2019-05-18T19:26:09.852Z,99.90
2019-05-18T19:28:31.050Z,99.90
2019-05-18T19:30:52.261Z,99.90
2019-05-18T19:33:13.457Z,99.90
2019-05-18T19:35:34.666Z,99.90
2019-05-18T19:37:55.992Z,99.90
2019-05-18T19:40:17.383Z,99.90
2019-05-18T19:42:38.610Z,99.90
2019-05-18T19:44:59.829Z,99.90
2019-05-18T19:47:21.021Z,99.90
2019-05-18T19:49:42.235Z,99.90
2019-05-18T19:52:03.438Z,99.90
2019-05-18T19:54:24.637Z,99.90
2019-05-18T19:56:45.893Z,99.90
2019-05-18T19:59:07.140Z,99.90
2019-05-18T20:01:28.349Z,99.90
2019-05-18T20:03:49.641Z,99.90
2019-05-18T20:06:10.854Z,99.90
2019-05-18T20:08:32.033Z,99.90
2019-05-18T20:10:53.357Z,99.90
2019-05-18T20:13:14.547Z,99.90
2019-05-18T20:15:35.777Z,99.90
2019-05-18T20:17:57.017Z,99.90
2019-05-18T20:20:18.696Z,99.90
2019-05-18T20:22:40.000Z,99.90
2019-05-18T20:25:01.218Z,99.90
2019-05-18T20:27:22.529Z,99.90
2019-05-18T20:29:43.769Z,99.90
2019-05-18T20:32:05.028Z,99.90
2019-05-18T20:34:26.298Z,99.90
2019-05-18T20:36:47.613Z,99.90
2019-05-18T20:39:08.913Z,99.90
2019-05-18T20:41:30.230Z,99.90
2019-05-18T20:43:51.435Z,99.90
2019-05-18T20:46:13.658Z,99.90
2019-05-18T20:48:34.867Z,99.90
2019-05-18T20:50:56.184Z,99.90
2019-05-18T20:53:17.401Z,99.90
2019-05-18T20:55:38.617Z,99.90
2019-05-18T20:57:59.825Z,99.90
2019-05-18T21:00:21.030Z,99.90
2019-05-18T21:02:42.237Z,99.90
2019-05-18T21:05:04.973Z,99.90
2019-05-18T21:07:27.260Z,99.90
2019-05-18T21:09:48.470Z,99.90
2019-05-18T21:12:09.739Z,99.90
2019-05-18T21:14:30.943Z,99.90
2019-05-18T21:16:53.160Z,99.90
2019-05-18T21:19:14.366Z,99.90
2019-05-18T21:21:35.798Z,99.90
2019-05-18T21:23:57.107Z,99.90
2019-05-18T21:26:18.351Z,99.90
2019-05-18T21:28:53.444Z,99.90
2019-05-18T21:31:02.702Z,99.90
2019-05-18T21:33:23.896Z,99.90
2019-05-18T21:35:45.111Z,99.90
2019-05-18T21:38:06.333Z,99.90
2019-05-18T21:40:27.554Z,99.90
2019-05-18T21:42:48.773Z,99.90
2019-05-18T21:45:10.282Z,99.90
2019-05-18T21:47:31.502Z,99.90
2019-05-18T21:49:52.717Z,99.90
2019-05-18T21:52:13.931Z,99.90
2019-05-18T21:54:35.131Z,99.90
2019-05-18T21:56:56.349Z,99.90
2019-05-18T21:59:17.548Z,99.90
2019-05-18T22:01:38.882Z,99.90
2019-05-18T22:04:00.207Z,99.90
2019-05-18T22:06:21.422Z,99.90
2019-05-18T22:08:42.629Z,99.90
2019-05-18T22:11:03.832Z,99.90
2019-05-18T22:13:25.153Z,99.90
2019-05-18T22:15:46.338Z,99.90
2019-05-18T22:18:07.661Z,99.90
2019-05-18T22:20:29.280Z,99.90
2019-05-18T22:22:50.606Z,99.90
2019-05-18T22:25:11.800Z,99.90
2019-05-18T22:27:33.038Z,99.90
2019-05-18T22:29:54.261Z,99.90
2019-05-18T22:32:15.469Z,99.90
2019-05-18T22:34:36.662Z,99.90
2019-05-18T22:36:57.873Z,99.90
2019-05-18T22:39:19.067Z,99.90
2019-05-18T22:41:40.270Z,99.90
2019-05-18T22:44:02.208Z,99.90
2019-05-18T22:46:23.504Z,99.90
2019-05-18T22:48:45.335Z,99.90
2019-05-18T22:51:06.562Z,99.90
2019-05-18T22:53:27.873Z,99.90
2019-05-18T22:55:49.082Z,99.90
2019-05-18T22:58:10.311Z,99.90
2019-05-18T23:00:31.787Z,99.90
2019-05-18T23:02:53.016Z,99.90
2019-05-18T23:05:14.420Z,99.90
2019-05-18T23:07:35.644Z,99.90
2019-05-18T23:09:56.944Z,99.90
2019-05-18T23:12:18.448Z,99.90
2019-05-18T23:14:39.674Z,99.90
2019-05-18T23:17:00.885Z,99.90
2019-05-18T23:19:22.090Z,99.90
2019-05-18T23:21:43.344Z,99.90
2019-05-18T23:24:04.849Z,99.90
2019-05-18T23:26:26.117Z,99.90
2019-05-18T23:28:47.324Z,99.90
2019-05-18T23:31:09.068Z,99.90
2019-05-18T23:33:30.267Z,99.90
2019-05-18T23:35:51.461Z,99.90
2019-05-18T23:38:14.589Z,99.90
2019-05-18T23:40:35.780Z,99.90
2019-05-18T23:42:56.991Z,99.90
2019-05-18T23:45:18.306Z,99.90
2019-05-18T23:47:39.587Z,99.90
2019-05-18T23:50:00.829Z,99.90
2019-05-18T23:52:22.294Z,99.90
2019-05-18T23:54:43.514Z,99.90
2019-05-18T23:57:04.717Z,99.90
2019-05-18T23:59:25.938Z,99.90
